sensor_id;sensor_type;location;lat;lon;timestamp;pressure;altitude;pressure_sealevel;temperature;humidity
9676;BME280;4876;42.656;23.292;2023-05-12T00:01:03;94566.88;;;8.81;82.85
9676;BME280;4876;42.656;23.292;2023-05-12T00:03:31;94563.00;;;8.79;82.04
9676;BME280;4876;42.656;23.292;2023-05-12T00:05:59;94559.41;;;8.75;82.10
9676;BME280;4876;42.656;23.292;2023-05-12T00:08:28;94567.41;;;8.70;82.21
9676;BME280;4876;42.656;23.292;2023-05-12T00:10:56;94556.50;;;8.62;82.18
9676;BME280;4876;42.656;23.292;2023-05-12T00:13:23;94565.72;;;8.74;82.41
9676;BME280;4876;42.656;23.292;2023-05-12T00:15:51;94560.88;;;8.67;82.02
9676;BME280;4876;42.656;23.292;2023-05-12T00:18:19;94565.81;;;8.69;81.53
9676;BME280;4876;42.656;23.292;2023-05-12T00:20:46;94558.16;;;8.58;81.28
9676;BME280;4876;42.656;23.292;2023-05-12T00:23:13;94562.13;;;8.56;82.86
9676;BME280;4876;42.656;23.292;2023-05-12T00:25:40;94564.66;;;8.61;83.04
9676;BME280;4876;42.656;23.292;2023-05-12T00:28:08;94565.66;;;8.51;83.16
9676;BME280;4876;42.656;23.292;2023-05-12T00:30:35;94563.88;;;8.47;83.93
9676;BME280;4876;42.656;23.292;2023-05-12T00:33:02;94568.75;;;8.40;83.98
9676;BME280;4876;42.656;23.292;2023-05-12T00:35:29;94565.03;;;8.41;85.24
9676;BME280;4876;42.656;23.292;2023-05-12T00:37:55;94566.94;;;8.35;85.49
9676;BME280;4876;42.656;23.292;2023-05-12T00:40:22;94569.94;;;8.28;87.35
9676;BME280;4876;42.656;23.292;2023-05-12T00:42:49;94568.09;;;8.29;87.59
9676;BME280;4876;42.656;23.292;2023-05-12T00:45:17;94569.63;;;8.16;87.73
9676;BME280;4876;42.656;23.292;2023-05-12T00:47:45;94565.53;;;8.10;90.34
9676;BME280;4876;42.656;23.292;2023-05-12T00:50:12;94567.47;;;8.04;90.82
9676;BME280;4876;42.656;23.292;2023-05-12T00:52:38;94577.06;;;7.95;91.06
9676;BME280;4876;42.656;23.292;2023-05-12T00:55:06;94569.97;;;7.96;92.33
9676;BME280;4876;42.656;23.292;2023-05-12T00:57:33;94575.00;;;7.92;93.60
9676;BME280;4876;42.656;23.292;2023-05-12T01:00:00;94570.97;;;7.81;93.79
9676;BME280;4876;42.656;23.292;2023-05-12T01:02:28;94574.53;;;7.71;93.96
9676;BME280;4876;42.656;23.292;2023-05-12T01:04:55;94582.75;;;7.65;94.71
9676;BME280;4876;42.656;23.292;2023-05-12T01:07:23;94556.25;;;7.52;96.64
9676;BME280;4876;42.656;23.292;2023-05-12T01:09:53;94580.06;;;7.51;97.24
9676;BME280;4876;42.656;23.292;2023-05-12T01:12:20;94575.13;;;7.49;97.30
9676;BME280;4876;42.656;23.292;2023-05-12T01:14:47;94575.19;;;7.44;97.65
9676;BME280;4876;42.656;23.292;2023-05-12T01:17:18;94578.38;;;7.41;99.60
9676;BME280;4876;42.656;23.292;2023-05-12T01:19:48;94583.13;;;7.39;99.98
9676;BME280;4876;42.656;23.292;2023-05-12T01:22:16;94575.06;;;7.36;100.00
9676;BME280;4876;42.656;23.292;2023-05-12T01:24:49;94574.69;;;7.23;100.00
9676;BME280;4876;42.656;23.292;2023-05-12T01:27:18;94575.47;;;7.24;100.00
9676;BME280;4876;42.656;23.292;2023-05-12T01:29:46;94560.78;;;7.09;100.00
9676;BME280;4876;42.656;23.292;2023-05-12T01:32:14;94579.69;;;7.20;100.00
9676;BME280;4876;42.656;23.292;2023-05-12T01:34:41;94578.50;;;7.12;100.00
9676;BME280;4876;42.656;23.292;2023-05-12T01:37:09;94580.81;;;7.14;100.00
9676;BME280;4876;42.656;23.292;2023-05-12T01:39:36;94580.97;;;7.04;100.00
9676;BME280;4876;42.656;23.292;2023-05-12T01:42:04;94573.66;;;7.00;100.00
9676;BME280;4876;42.656;23.292;2023-05-12T01:44:32;94573.66;;;7.00;100.00
9676;BME280;4876;42.656;23.292;2023-05-12T01:46:59;94584.41;;;6.99;100.00
9676;BME280;4876;42.656;23.292;2023-05-12T01:49:27;94582.09;;;6.97;100.00
9676;BME280;4876;42.656;23.292;2023-05-12T01:51:54;94584.41;;;6.99;100.00
9676;BME280;4876;42.656;23.292;2023-05-12T01:54:21;94580.97;;;7.04;100.00
9676;BME280;4876;42.656;23.292;2023-05-12T01:56:48;94577.06;;;7.01;100.00
9676;BME280;4876;42.656;23.292;2023-05-12T01:59:14;94575.44;;;7.05;100.00
9676;BME280;4876;42.656;23.292;2023-05-12T02:01:43;94568.72;;;6.99;100.00
9676;BME280;4876;42.656;23.292;2023-05-12T02:04:09;94571.63;;;6.97;100.00
9676;BME280;4876;42.656;23.292;2023-05-12T02:06:36;94570.34;;;6.95;100.00
9676;BME280;4876;42.656;23.292;2023-05-12T02:09:03;94578.97;;;6.95;100.00
9676;BME280;4876;42.656;23.292;2023-05-12T02:11:30;94578.19;;;6.95;100.00
9676;BME280;4876;42.656;23.292;2023-05-12T02:13:57;94578.41;;;6.98;100.00
9676;BME280;4876;42.656;23.292;2023-05-12T02:16:24;94565.06;;;7.00;100.00
9676;BME280;4876;42.656;23.292;2023-05-12T02:18:52;94568.00;;;6.93;100.00
9676;BME280;4876;42.656;23.292;2023-05-12T02:21:19;94576.91;;;6.92;100.00
9676;BME280;4876;42.656;23.292;2023-05-12T02:23:45;94568.06;;;6.88;100.00
9676;BME280;4876;42.656;23.292;2023-05-12T02:26:12;94567.63;;;6.81;100.00
9676;BME280;4876;42.656;23.292;2023-05-12T02:28:39;94562.97;;;6.78;100.00
9676;BME280;4876;42.656;23.292;2023-05-12T02:31:05;94562.94;;;6.83;100.00
9676;BME280;4876;42.656;23.292;2023-05-12T02:33:33;94575.00;;;6.79;100.00
9676;BME280;4876;42.656;23.292;2023-05-12T02:36:01;94566.09;;;6.80;100.00
9676;BME280;4876;42.656;23.292;2023-05-12T02:38:28;94556.25;;;6.72;100.00
9676;BME280;4876;42.656;23.292;2023-05-12T02:40:54;94568.09;;;6.64;100.00
9676;BME280;4876;42.656;23.292;2023-05-12T02:43:21;94567.09;;;6.60;100.00
9676;BME280;4876;42.656;23.292;2023-05-12T02:45:48;94572.09;;;6.57;100.00
9676;BME280;4876;42.656;23.292;2023-05-12T02:48:16;94557.03;;;6.48;100.00
9676;BME280;4876;42.656;23.292;2023-05-12T02:50:42;94563.38;;;6.42;100.00
9676;BME280;4876;42.656;23.292;2023-05-12T02:53:11;94569.66;;;6.41;100.00
9676;BME280;4876;42.656;23.292;2023-05-12T02:55:38;94568.88;;;6.41;100.00
9676;BME280;4876;42.656;23.292;2023-05-12T02:58:05;94572.22;;;6.46;100.00
9676;BME280;4876;42.656;23.292;2023-05-12T03:00:31;94575.81;;;6.51;100.00
9676;BME280;4876;42.656;23.292;2023-05-12T03:02:58;94571.69;;;6.44;100.00
9676;BME280;4876;42.656;23.292;2023-05-12T03:05:25;94584.75;;;6.44;100.00
9676;BME280;4876;42.656;23.292;2023-05-12T03:07:52;94581.66;;;6.42;100.00
9676;BME280;4876;42.656;23.292;2023-05-12T03:10:20;94579.72;;;6.53;100.00
9676;BME280;4876;42.656;23.292;2023-05-12T03:12:47;94582.06;;;6.55;100.00
9676;BME280;4876;42.656;23.292;2023-05-12T03:15:14;94561.88;;;6.36;100.00
9676;BME280;4876;42.656;23.292;2023-05-12T03:17:43;94587.38;;;6.68;100.00
9676;BME280;4876;42.656;23.292;2023-05-12T03:20:11;94593.66;;;6.67;100.00
9676;BME280;4876;42.656;23.292;2023-05-12T03:22:38;94600.63;;;6.77;100.00
9676;BME280;4876;42.656;23.292;2023-05-12T03:25:06;94596.00;;;6.69;100.00
9676;BME280;4876;42.656;23.292;2023-05-12T03:27:36;94605.28;;;6.80;100.00
9676;BME280;4876;42.656;23.292;2023-05-12T03:30:03;94604.47;;;6.85;100.00
9676;BME280;4876;42.656;23.292;2023-05-12T03:32:30;94603.56;;;6.94;100.00
9676;BME280;4876;42.656;23.292;2023-05-12T03:34:57;94605.34;;;6.99;100.00
9676;BME280;4876;42.656;23.292;2023-05-12T03:37:23;94604.28;;;7.00;100.00
9676;BME280;4876;42.656;23.292;2023-05-12T03:39:50;94610.22;;;7.06;100.00
9676;BME280;4876;42.656;23.292;2023-05-12T03:42:20;94608.22;;;6.97;100.00
9676;BME280;4876;42.656;23.292;2023-05-12T03:44:50;94612.47;;;6.93;100.00
9676;BME280;4876;42.656;23.292;2023-05-12T03:47:16;94618.78;;;6.87;100.00
9676;BME280;4876;42.656;23.292;2023-05-12T03:49:43;94613.69;;;6.77;100.00
9676;BME280;4876;42.656;23.292;2023-05-12T03:52:10;94612.50;;;6.88;100.00
9676;BME280;4876;42.656;23.292;2023-05-12T03:54:37;94609.16;;;7.07;100.00
9676;BME280;4876;42.656;23.292;2023-05-12T03:57:04;94615.75;;;7.04;100.00
9676;BME280;4876;42.656;23.292;2023-05-12T03:59:32;94610.22;;;7.06;100.00
9676;BME280;4876;42.656;23.292;2023-05-12T04:02:00;94612.56;;;7.07;100.00
9676;BME280;4876;42.656;23.292;2023-05-12T04:04:27;94615.09;;;7.12;100.00
9676;BME280;4876;42.656;23.292;2023-05-12T04:06:53;94620.41;;;7.07;100.00
9676;BME280;4876;42.656;23.292;2023-05-12T04:09:20;94621.88;;;7.13;100.00
9676;BME280;4876;42.656;23.292;2023-05-12T04:11:48;94626.88;;;7.15;100.00
9676;BME280;4876;42.656;23.292;2023-05-12T04:14:15;94623.78;;;7.08;100.00
9676;BME280;4876;42.656;23.292;2023-05-12T04:16:42;94633.59;;;7.21;100.00
9676;BME280;4876;42.656;23.292;2023-05-12T04:19:10;94631.38;;;7.09;100.00
9676;BME280;4876;42.656;23.292;2023-05-12T04:21:37;94630.25;;;7.15;100.00
9676;BME280;4876;42.656;23.292;2023-05-12T04:24:04;94630.59;;;7.09;100.00
9676;BME280;4876;42.656;23.292;2023-05-12T04:26:31;94627.47;;;7.07;100.00
9676;BME280;4876;42.656;23.292;2023-05-12T04:28:58;94627.03;;;6.99;100.00
9676;BME280;4876;42.656;23.292;2023-05-12T04:31:28;94624.91;;;7.01;100.00
9676;BME280;4876;42.656;23.292;2023-05-12T04:33:56;94630.13;;;7.01;100.00
9676;BME280;4876;42.656;23.292;2023-05-12T04:36:31;94632.19;;;7.05;100.00
9676;BME280;4876;42.656;23.292;2023-05-12T04:38:58;94632.81;;;6.96;100.00
9676;BME280;4876;42.656;23.292;2023-05-12T04:41:32;94622.88;;;6.98;100.00
9676;BME280;4876;42.656;23.292;2023-05-12T04:44:05;94626.75;;;7.01;100.00
9676;BME280;4876;42.656;23.292;2023-05-12T04:46:35;94629.34;;;7.25;100.00
9676;BME280;4876;42.656;23.292;2023-05-12T04:49:05;94621.13;;;7.13;100.00
9676;BME280;4876;42.656;23.292;2023-05-12T04:51:33;94632.00;;;7.20;100.00
9676;BME280;4876;42.656;23.292;2023-05-12T04:54:07;94632.00;;;7.20;100.00
9676;BME280;4876;42.656;23.292;2023-05-12T04:56:34;94625.81;;;7.16;100.00
9676;BME280;4876;42.656;23.292;2023-05-12T04:59:01;94627.91;;;7.14;100.00
9676;BME280;4876;42.656;23.292;2023-05-12T05:01:27;94635.16;;;6.98;100.00
9676;BME280;4876;42.656;23.292;2023-05-12T05:03:54;94638.84;;;6.97;100.00
9676;BME280;4876;42.656;23.292;2023-05-12T05:06:21;94635.16;;;6.98;100.00
9676;BME280;4876;42.656;23.292;2023-05-12T05:08:49;94631.97;;;7.01;100.00
9676;BME280;4876;42.656;23.292;2023-05-12T05:11:17;94627.59;;;6.96;100.00
9676;BME280;4876;42.656;23.292;2023-05-12T05:13:44;94626.47;;;7.03;100.00
9676;BME280;4876;42.656;23.292;2023-05-12T05:16:10;94632.50;;;7.03;100.00
9676;BME280;4876;42.656;23.292;2023-05-12T05:18:37;94642.72;;;6.99;100.00
9676;BME280;4876;42.656;23.292;2023-05-12T05:21:06;94635.34;;;7.01;100.00
9676;BME280;4876;42.656;23.292;2023-05-12T05:23:33;94642.72;;;6.99;100.00
9676;BME280;4876;42.656;23.292;2023-05-12T05:26:02;94634.38;;;6.97;100.00
9676;BME280;4876;42.656;23.292;2023-05-12T05:28:29;94637.03;;;6.92;100.00
9676;BME280;4876;42.656;23.292;2023-05-12T05:30:56;94637.47;;;6.99;100.00
9676;BME280;4876;42.656;23.292;2023-05-12T05:33:23;94639.38;;;7.18;100.00
9676;BME280;4876;42.656;23.292;2023-05-12T05:35:50;94634.84;;;7.23;100.00
9676;BME280;4876;42.656;23.292;2023-05-12T05:38:17;94634.06;;;7.23;100.00
9676;BME280;4876;42.656;23.292;2023-05-12T05:40:44;94653.50;;;7.17;100.00
9676;BME280;4876;42.656;23.292;2023-05-12T05:43:12;94638.34;;;7.14;100.00
9676;BME280;4876;42.656;23.292;2023-05-12T05:45:38;94651.72;;;7.12;100.00
9676;BME280;4876;42.656;23.292;2023-05-12T05:48:05;94656.47;;;7.10;100.00
9676;BME280;4876;42.656;23.292;2023-05-12T05:50:32;94654.84;;;7.14;100.00
9676;BME280;4876;42.656;23.292;2023-05-12T05:52:59;94659.75;;;7.21;100.00
9676;BME280;4876;42.656;23.292;2023-05-12T05:55:25;94645.59;;;7.22;100.00
9676;BME280;4876;42.656;23.292;2023-05-12T05:57:52;94650.25;;;7.25;100.00
9676;BME280;4876;42.656;23.292;2023-05-12T06:00:20;94647.16;;;7.23;100.00
9676;BME280;4876;42.656;23.292;2023-05-12T06:02:47;94649.13;;;7.31;100.00
9676;BME280;4876;42.656;23.292;2023-05-12T06:05:14;94652.28;;;7.33;100.00
9676;BME280;4876;42.656;23.292;2023-05-12T06:07:41;94657.22;;;7.35;100.00
9676;BME280;4876;42.656;23.292;2023-05-12T06:10:07;94661.38;;;7.36;100.00
9676;BME280;4876;42.656;23.292;2023-05-12T06:12:34;94659.91;;;7.48;100.00
9676;BME280;4876;42.656;23.292;2023-05-12T06:15:01;94668.41;;;7.59;100.00
9676;BME280;4876;42.656;23.292;2023-05-12T06:17:29;94668.06;;;7.66;99.03
9676;BME280;4876;42.656;23.292;2023-05-12T06:19:56;94666.56;;;7.60;99.35
9676;BME280;4876;42.656;23.292;2023-05-12T06:22:22;94665.44;;;7.66;99.39
9676;BME280;4876;42.656;23.292;2023-05-12T06:24:50;94679.88;;;7.63;99.26
9676;BME280;4876;42.656;23.292;2023-05-12T06:27:16;94666.56;;;7.60;97.61
9676;BME280;4876;42.656;23.292;2023-05-12T06:29:43;94670.69;;;7.66;98.20
9676;BME280;4876;42.656;23.292;2023-05-12T06:32:10;94673.06;;;7.62;97.55
9676;BME280;4876;42.656;23.292;2023-05-12T06:34:38;94679.59;;;7.65;98.18
9676;BME280;4876;42.656;23.292;2023-05-12T06:37:05;94678.72;;;7.69;96.82
9676;BME280;4876;42.656;23.292;2023-05-12T06:39:32;94682.28;;;7.78;96.38
9676;BME280;4876;42.656;23.292;2023-05-12T06:41:58;94678.84;;;7.83;94.68
9676;BME280;4876;42.656;23.292;2023-05-12T06:44:25;94685.63;;;7.84;94.86
9676;BME280;4876;42.656;23.292;2023-05-12T06:46:52;94690.34;;;7.82;94.90
9676;BME280;4876;42.656;23.292;2023-05-12T06:49:19;94677.81;;;7.79;94.54
9676;BME280;4876;42.656;23.292;2023-05-12T06:51:47;94679.81;;;7.87;93.77
9676;BME280;4876;42.656;23.292;2023-05-12T06:54:14;94686.22;;;7.95;92.53
9676;BME280;4876;42.656;23.292;2023-05-12T06:56:40;94677.69;;;8.08;93.35
9676;BME280;4876;42.656;23.292;2023-05-12T06:59:07;94686.31;;;8.08;93.46
9676;BME280;4876;42.656;23.292;2023-05-12T07:01:35;94681.69;;;8.00;93.15
9676;BME280;4876;42.656;23.292;2023-05-12T07:04:02;94681.16;;;8.03;93.84
9676;BME280;4876;42.656;23.292;2023-05-12T07:06:29;94675.47;;;8.15;94.32
9676;BME280;4876;42.656;23.292;2023-05-12T07:09:00;94681.50;;;8.16;93.30
9676;BME280;4876;42.656;23.292;2023-05-12T07:11:26;94682.94;;;8.08;93.85
9676;BME280;4876;42.656;23.292;2023-05-12T07:13:53;94685.91;;;8.01;93.47
9676;BME280;4876;42.656;23.292;2023-05-12T07:16:20;94690.69;;;8.13;95.67
9676;BME280;4876;42.656;23.292;2023-05-12T07:18:47;94695.06;;;8.18;93.88
9676;BME280;4876;42.656;23.292;2023-05-12T07:21:14;94689.75;;;8.23;94.18
9676;BME280;4876;42.656;23.292;2023-05-12T07:23:41;94696.38;;;8.20;93.93
9676;BME280;4876;42.656;23.292;2023-05-12T07:26:09;94691.81;;;8.07;93.85
9676;BME280;4876;42.656;23.292;2023-05-12T07:28:36;94681.84;;;8.09;93.39
9676;BME280;4876;42.656;23.292;2023-05-12T07:31:03;94673.06;;;8.00;92.19
9676;BME280;4876;42.656;23.292;2023-05-12T07:33:31;94695.38;;;8.16;92.44
9676;BME280;4876;42.656;23.292;2023-05-12T07:35:58;94693.63;;;8.25;92.77
9676;BME280;4876;42.656;23.292;2023-05-12T07:38:25;94696.91;;;8.36;91.77
9676;BME280;4876;42.656;23.292;2023-05-12T07:40:51;94689.47;;;8.43;90.89
9676;BME280;4876;42.656;23.292;2023-05-12T07:43:20;94699.47;;;8.41;90.46
9676;BME280;4876;42.656;23.292;2023-05-12T07:45:47;94691.81;;;8.45;90.89
9676;BME280;4876;42.656;23.292;2023-05-12T07:48:14;94693.78;;;8.53;90.61
9676;BME280;4876;42.656;23.292;2023-05-12T07:50:40;94689.47;;;8.43;90.15
9676;BME280;4876;42.656;23.292;2023-05-12T07:53:07;94700.16;;;8.47;89.41
9676;BME280;4876;42.656;23.292;2023-05-12T07:55:34;94685.41;;;8.51;88.96
9676;BME280;4876;42.656;23.292;2023-05-12T07:58:01;94689.72;;;8.60;90.82
9676;BME280;4876;42.656;23.292;2023-05-12T08:00:29;94687.81;;;8.80;89.22
9676;BME280;4876;42.656;23.292;2023-05-12T08:02:55;94687.50;;;8.81;87.55
9676;BME280;4876;42.656;23.292;2023-05-12T08:05:22;94682.41;;;8.90;87.45
9676;BME280;4876;42.656;23.292;2023-05-12T08:07:49;94685.78;;;9.04;85.75
9676;BME280;4876;42.656;23.292;2023-05-12T08:10:16;94684.16;;;9.22;84.56
9676;BME280;4876;42.656;23.292;2023-05-12T08:12:43;94682.78;;;9.25;84.67
9676;BME280;4876;42.656;23.292;2023-05-12T08:15:11;94675.88;;;9.29;84.15
9676;BME280;4876;42.656;23.292;2023-05-12T08:17:39;94686.88;;;9.31;84.05
9676;BME280;4876;42.656;23.292;2023-05-12T08:20:07;94683.19;;;9.32;83.31
9676;BME280;4876;42.656;23.292;2023-05-12T08:22:34;94686.09;;;9.44;81.40
9676;BME280;4876;42.656;23.292;2023-05-12T08:25:00;94696.59;;;9.44;81.81
9676;BME280;4876;42.656;23.292;2023-05-12T08:27:27;94693.69;;;9.46;83.26
9676;BME280;4876;42.656;23.292;2023-05-12T08:29:54;94691.22;;;9.63;83.33
9676;BME280;4876;42.656;23.292;2023-05-12T08:32:21;94698.22;;;9.67;81.75
9676;BME280;4876;42.656;23.292;2023-05-12T08:34:49;94690.25;;;9.59;80.79
9676;BME280;4876;42.656;23.292;2023-05-12T08:37:16;94693.16;;;9.71;81.51
9676;BME280;4876;42.656;23.292;2023-05-12T08:39:43;94688.56;;;9.77;80.45
9676;BME280;4876;42.656;23.292;2023-05-12T08:42:16;94691.75;;;9.87;79.96
9676;BME280;4876;42.656;23.292;2023-05-12T08:44:45;94706.19;;;9.62;80.69
9676;BME280;4876;42.656;23.292;2023-05-12T08:47:13;94694.13;;;9.75;81.14
9676;BME280;4876;42.656;23.292;2023-05-12T08:49:41;94696.75;;;9.61;79.79
9676;BME280;4876;42.656;23.292;2023-05-12T08:52:11;94706.69;;;9.37;80.62
9676;BME280;4876;42.656;23.292;2023-05-12T08:54:43;94711.28;;;9.45;81.83
9676;BME280;4876;42.656;23.292;2023-05-12T08:57:10;94701.84;;;9.58;80.53
9676;BME280;4876;42.656;23.292;2023-05-12T08:59:38;94697.69;;;9.79;80.89
9676;BME280;4876;42.656;23.292;2023-05-12T09:02:09;94699.59;;;10.01;80.28
9676;BME280;4876;42.656;23.292;2023-05-12T09:04:37;94689.69;;;9.98;78.91
9676;BME280;4876;42.656;23.292;2023-05-12T09:07:04;94686.47;;;10.01;79.08
9676;BME280;4876;42.656;23.292;2023-05-12T09:09:34;94687.31;;;10.10;78.85
9676;BME280;4876;42.656;23.292;2023-05-12T09:12:02;94684.69;;;10.10;78.71
9676;BME280;4876;42.656;23.292;2023-05-12T09:14:33;94680.09;;;10.16;78.04
9676;BME280;4876;42.656;23.292;2023-05-12T09:17:03;94678.59;;;10.01;78.95
9676;BME280;4876;42.656;23.292;2023-05-12T09:19:30;94680.88;;;9.80;79.93
9676;BME280;4876;42.656;23.292;2023-05-12T09:21:57;94694.78;;;9.81;79.59
9676;BME280;4876;42.656;23.292;2023-05-12T09:24:34;94677.63;;;9.97;79.61
9676;BME280;4876;42.656;23.292;2023-05-12T09:27:01;94678.59;;;10.01;79.15
9676;BME280;4876;42.656;23.292;2023-05-12T09:29:28;94672.16;;;10.07;78.80
9676;BME280;4876;42.656;23.292;2023-05-12T09:31:56;94676.38;;;10.17;79.69
9676;BME280;4876;42.656;23.292;2023-05-12T09:34:26;94673.09;;;10.11;78.72
9676;BME280;4876;42.656;23.292;2023-05-12T09:36:58;94668.59;;;10.26;79.42
9676;BME280;4876;42.656;23.292;2023-05-12T09:39:25;94684.69;;;10.10;78.55
9676;BME280;4876;42.656;23.292;2023-05-12T09:41:54;94673.03;;;10.03;79.73
9676;BME280;4876;42.656;23.292;2023-05-12T09:44:23;94676.22;;;10.13;78.90
9676;BME280;4876;42.656;23.292;2023-05-12T09:46:50;94678.50;;;10.29;78.07
9676;BME280;4876;42.656;23.292;2023-05-12T09:49:17;94666.06;;;10.43;77.31
9676;BME280;4876;42.656;23.292;2023-05-12T09:51:45;94670.19;;;10.58;77.09
9676;BME280;4876;42.656;23.292;2023-05-12T09:54:12;94672.34;;;10.56;75.82
9676;BME280;4876;42.656;23.292;2023-05-12T09:56:39;94670.34;;;10.61;76.25
9676;BME280;4876;42.656;23.292;2023-05-12T09:59:10;94662.31;;;10.89;76.12
9676;BME280;4876;42.656;23.292;2023-05-12T10:01:38;94669.47;;;10.97;74.69
9676;BME280;4876;42.656;23.292;2023-05-12T10:04:06;94665.59;;;10.94;74.46
9676;BME280;4876;42.656;23.292;2023-05-12T10:06:37;94668.81;;;10.91;74.27
9676;BME280;4876;42.656;23.292;2023-05-12T10:09:10;94661.41;;;10.93;74.15
9676;BME280;4876;42.656;23.292;2023-05-12T10:11:39;94667.78;;;11.01;74.56
9676;BME280;4876;42.656;23.292;2023-05-12T10:14:05;94662.00;;;10.90;75.55
9676;BME280;4876;42.656;23.292;2023-05-12T10:16:35;94649.56;;;11.13;74.87
9676;BME280;4876;42.656;23.292;2023-05-12T10:19:02;94658.44;;;11.35;73.55
9676;BME280;4876;42.656;23.292;2023-05-12T10:21:30;94651.16;;;11.31;72.42
9676;BME280;4876;42.656;23.292;2023-05-12T10:23:58;94628.19;;;11.15;72.71
9676;BME280;4876;42.656;23.292;2023-05-12T10:26:25;94659.41;;;11.47;72.52
9676;BME280;4876;42.656;23.292;2023-05-12T10:28:52;94655.69;;;11.48;73.13
9676;BME280;4876;42.656;23.292;2023-05-12T10:31:19;94653.72;;;11.71;73.17
9676;BME280;4876;42.656;23.292;2023-05-12T10:33:56;94656.66;;;11.70;72.00
9676;BME280;4876;42.656;23.292;2023-05-12T10:36:23;94644.28;;;11.96;70.95
9676;BME280;4876;42.656;23.292;2023-05-12T10:38:50;94660.72;;;11.84;69.53
9676;BME280;4876;42.656;23.292;2023-05-12T10:41:28;94641.19;;;11.85;70.15
9676;BME280;4876;42.656;23.292;2023-05-12T10:43:56;94648.19;;;12.07;70.47
9676;BME280;4876;42.656;23.292;2023-05-12T10:46:23;94644.91;;;12.19;68.81
9676;BME280;4876;42.656;23.292;2023-05-12T10:48:53;94641.03;;;12.43;67.67
9676;BME280;4876;42.656;23.292;2023-05-12T10:51:23;94643.13;;;12.66;66.00
9676;BME280;4876;42.656;23.292;2023-05-12T10:53:52;94640.91;;;12.86;68.27
9676;BME280;4876;42.656;23.292;2023-05-12T10:56:24;94604.94;;;12.64;67.59
9676;BME280;4876;42.656;23.292;2023-05-12T10:59:21;94652.97;;;12.96;67.20
9676;BME280;4876;42.656;23.292;2023-05-12T11:01:57;94644.00;;;12.88;67.82
9676;BME280;4876;42.656;23.292;2023-05-12T11:04:38;94648.78;;;12.94;67.88
9676;BME280;4876;42.656;23.292;2023-05-12T11:07:10;94633.28;;;12.84;65.32
9676;BME280;4876;42.656;23.292;2023-05-12T11:09:40;94653.63;;;12.84;65.27
9676;BME280;4876;42.656;23.292;2023-05-12T11:12:09;94648.34;;;12.92;66.06
9676;BME280;4876;42.656;23.292;2023-05-12T11:14:37;94588.91;;;12.22;66.19
9676;BME280;4876;42.656;23.292;2023-05-12T11:17:08;94647.63;;;12.75;66.44
9676;BME280;4876;42.656;23.292;2023-05-12T11:19:36;94662.53;;;12.71;65.37
9676;BME280;4876;42.656;23.292;2023-05-12T11:22:04;94652.16;;;12.48;64.87
9676;BME280;4876;42.656;23.292;2023-05-12T11:24:36;94659.91;;;12.62;65.57
9676;BME280;4876;42.656;23.292;2023-05-12T11:27:03;94660.03;;;12.74;67.00
9676;BME280;4876;42.656;23.292;2023-05-12T11:29:32;94661.00;;;12.52;66.36
9676;BME280;4876;42.656;23.292;2023-05-12T11:31:59;94666.88;;;12.58;66.78
9676;BME280;4876;42.656;23.292;2023-05-12T11:34:26;94655.72;;;12.61;66.41
9676;BME280;4876;42.656;23.292;2023-05-12T11:36:55;94639.91;;;12.52;65.73
9676;BME280;4876;42.656;23.292;2023-05-12T11:39:23;94657.84;;;12.76;67.05
9676;BME280;4876;42.656;23.292;2023-05-12T11:41:52;94657.41;;;12.74;66.53
9676;BME280;4876;42.656;23.292;2023-05-12T11:44:23;94641.34;;;12.32;66.52
9676;BME280;4876;42.656;23.292;2023-05-12T11:46:58;94653.25;;;12.56;66.30
9676;BME280;4876;42.656;23.292;2023-05-12T11:49:26;94654.34;;;12.55;67.05
9676;BME280;4876;42.656;23.292;2023-05-12T11:51:54;94655.41;;;12.62;67.29
9676;BME280;4876;42.656;23.292;2023-05-12T11:54:21;94640.19;;;12.68;66.40
9676;BME280;4876;42.656;23.292;2023-05-12T11:56:53;94651.03;;;12.75;66.24
9676;BME280;4876;42.656;23.292;2023-05-12T11:59:29;94656.75;;;12.77;65.68
9676;BME280;4876;42.656;23.292;2023-05-12T12:01:56;94648.56;;;12.70;64.73
9676;BME280;4876;42.656;23.292;2023-05-12T12:04:33;94646.56;;;12.67;64.49
9676;BME280;4876;42.656;23.292;2023-05-12T12:07:00;94654.69;;;12.36;64.95
9676;BME280;4876;42.656;23.292;2023-05-12T12:09:32;94639.56;;;12.54;66.65
9676;BME280;4876;42.656;23.292;2023-05-12T12:11:59;94639.09;;;12.69;66.87
9676;BME280;4876;42.656;23.292;2023-05-12T12:14:29;94656.56;;;12.91;64.21
9676;BME280;4876;42.656;23.292;2023-05-12T12:16:56;94654.88;;;12.86;63.23
9676;BME280;4876;42.656;23.292;2023-05-12T12:19:23;94648.22;;;12.80;64.80
9676;BME280;4876;42.656;23.292;2023-05-12T12:21:50;94658.91;;;12.92;64.91
9676;BME280;4876;42.656;23.292;2023-05-12T12:24:17;94664.94;;;12.93;63.18
9676;BME280;4876;42.656;23.292;2023-05-12T12:26:44;94659.06;;;12.87;63.95
9676;BME280;4876;42.656;23.292;2023-05-12T12:29:11;94621.13;;;12.54;63.37
9676;BME280;4876;42.656;23.292;2023-05-12T12:31:39;94661.47;;;12.63;64.02
9676;BME280;4876;42.656;23.292;2023-05-12T12:34:06;94655.53;;;12.66;65.04
9676;BME280;4876;42.656;23.292;2023-05-12T12:36:33;94655.38;;;12.80;66.30
9676;BME280;4876;42.656;23.292;2023-05-12T12:39:00;94650.38;;;12.87;66.09
9676;BME280;4876;42.656;23.292;2023-05-12T12:41:26;94650.50;;;12.90;66.43
9676;BME280;4876;42.656;23.292;2023-05-12T12:43:53;94649.59;;;12.86;65.83
9676;BME280;4876;42.656;23.292;2023-05-12T12:46:20;94653.56;;;13.01;65.22
9676;BME280;4876;42.656;23.292;2023-05-12T12:48:48;94645.50;;;12.98;64.71
9676;BME280;4876;42.656;23.292;2023-05-12T12:51:15;94645.69;;;12.92;65.16
9676;BME280;4876;42.656;23.292;2023-05-12T12:53:42;94651.88;;;12.97;64.49
9676;BME280;4876;42.656;23.292;2023-05-12T12:56:10;94644.63;;;12.85;63.60
9676;BME280;4876;42.656;23.292;2023-05-12T12:58:37;94646.31;;;12.89;64.81
9676;BME280;4876;42.656;23.292;2023-05-12T13:01:03;94643.34;;;13.00;64.42
9676;BME280;4876;42.656;23.292;2023-05-12T13:03:30;94642.97;;;13.10;63.50
9676;BME280;4876;42.656;23.292;2023-05-12T13:05:58;94633.22;;;13.02;63.25
9676;BME280;4876;42.656;23.292;2023-05-12T13:08:25;94634.78;;;13.03;64.24
9676;BME280;4876;42.656;23.292;2023-05-12T13:10:52;94627.78;;;13.07;63.85
9676;BME280;4876;42.656;23.292;2023-05-12T13:13:19;94637.25;;;13.08;61.93
9676;BME280;4876;42.656;23.292;2023-05-12T13:15:46;94627.03;;;12.98;61.00
9676;BME280;4876;42.656;23.292;2023-05-12T13:18:12;94623.81;;;12.92;58.95